Fábio Monteiro

Scout - Vasco da Gama
9 Dez 2028
Samstag
Verarbeitung

Persönlichkeit

Anpassungsfähigkeit (5) Ehrgeiz (15) Kontroverse (12) Loyalität (1) Druck (16) Professionalität (14) Fairness (11) Temperament (17)

Profil

Trainerstil Demokratisch
Lizenz Kontinentale Pro
Entschlossenheit 7
Menschenführung 9
Motivation 10
Disziplin 10
Arbeitszufriedenheit
82%
Ermüdung
0%
Rolle Scout
Gehalt 33.8K p/W
Vertrag 14.03.2030

Leistung

Verhalten Gut
Trainingseffektivität
39%
Spielerentwicklung
25%
Verletzungsprävention
40%
Taktische Umsetzung
25%

Letzte Ereignisse

Nahm an einer Scouting-Besprechung teil jetzt
Empfahl ein Transferziel jetzt
Legte dem Vorstand ein Dossier vor jetzt
Legte dem Vorstand ein Dossier vor jetzt
Spieler begutachtet 7T her
Legte dem Vorstand ein Dossier vor 7T her
Legte dem Vorstand ein Dossier vor 7T her
Legte dem Vorstand ein Dossier vor 7T her

Aktuell beobachtet

289
Spieler Verein Status Fähigkeit Vertrauen Beobachtet Zuletzt beobachtet Letzte Stimme
Endrick Boca Juniors Verhandlung 159 / 168 40% 7 02.12.2028 -
Samu Aghehowa Udinese Aktiv 162 / 157 40% 1 02.12.2028 -
Souleymane Faye Sporting CP Aktiv 130 / 133 40% 1 02.12.2028 -
Willian José Bahia Bericht bereit 107 / 122 72% 1 01.12.2028 -
Antonio Galeano Remo Stars Aktiv 125 / 124 40% 11 30.11.2028 -
Lautaro Giaccone Argentinos Juniors Aktiv 135 / 129 40% 8 30.11.2028 -
Alan Lescano Argentinos Juniors Aktiv 139 / 136 40% 6 30.11.2028 -
Dor Turgeman Spartak Moscow Aktiv 129 / 143 40% 1 30.11.2028 -
Matías Fernández-Pardo Atalanta Aktiv 149 / 163 40% 1 30.11.2028 -
Thiago Brentford Aktiv 152 / 146 40% 1 30.11.2028 -
Carlos Palacios Boca Juniors Aktiv 137 / 139 40% 6 28.11.2028 -
Juan Cruz de los Santos Nacional Aktiv 131 / 137 40% 4 28.11.2028 -
Luciano Juba Bahia Aktiv 130 / 125 40% 2 27.11.2028 -
Guille Rosas Boca Juniors Aktiv 152 / 152 40% 9 27.11.2028 -
Vitinho Internacional Aktiv 132 / 127 40% 8 27.11.2028 -
John Kennedy Corinthians Aktiv 131 / 134 40% 5 27.11.2028 -
Juninho Capixaba Bragantino Aktiv 134 / 127 40% 1 27.11.2028 -
Léo Pereira Ceará Aktiv 132 / 131 40% 1 27.11.2028 -
Alex Luna Instituto Aktiv 130 / 130 40% 5 26.11.2028 -
Álvaro Barreal Atlético Mineiro Aktiv 139 / 134 40% 5 26.11.2028 -
Lucas Villalba Botafogo Aktiv 131 / 125 40% 2 25.11.2028 -
Andreas Pereira Palmeiras Aktiv 145 / 136 40% 8 21.11.2028 -
Kevin Zenón Boca Juniors Aktiv 143 / 138 40% 9 21.11.2028 -
Santiago Solari Racing Club Aktiv 133 / 126 40% 7 21.11.2028 -
Kaiki Cruzeiro Aktiv 139 / 144 40% 3 21.11.2028 -
Hércules Internacional Aktiv 130 / 127 40% 3 21.11.2028 -
Marlon Juventude Aktiv 130 / 126 40% 2 21.11.2028 -
Jovane Cabral Grêmio Aktiv 122 / 123 40% 1 19.11.2028 -
Rodrigo Atencio São Paulo Aktiv 134 / 123 40% 6 18.11.2028 -
Juan Pablo Freytes Fluminense Aktiv 134 / 128 40% 2 18.11.2028 -
Léo Ortiz Flamengo Aktiv 142 / 133 40% 1 18.11.2028 -
Francis Amuzu Atletico Goianiense Aktiv 132 / 126 40% 5 16.11.2028 -
Calebe Fortaleza Aktiv 144 / 140 40% 5 15.11.2028 -
Agustín Giay Palmeiras Aktiv 131 / 134 40% 2 12.11.2028 -
Bruno Leyes Godoy Cruz Aktiv 128 / 128 40% 4 08.11.2028 -
Aarón Molinas Defensa y Justicia Aktiv 125 / 124 40% 4 07.11.2028 -
Toni Fruk Talleres Aktiv 143 / 143 40% 2 06.11.2028 -
Alexandro Bernabei Internacional Aktiv 146 / 131 40% 2 05.11.2028 -
Cristian Medina Botafogo Aktiv 129 / 133 40% 3 02.11.2028 -
Marino Hinestroza Bahia Aktiv 124 / 136 40% 1 02.11.2028 -
Gustavo Neves Bragantino Aktiv 127 / 128 40% 3 01.11.2028 -
Adrián Sánchez Belgrano Aktiv 128 / 128 40% 4 31.10.2028 -
Gastón Martirena Racing Club Aktiv 130 / 131 40% 5 31.10.2028 -
Imanol Machuca Independiente Aktiv 128 / 121 40% 1 25.10.2028 -
Marcos Antonio Sport Recife Aktiv 141 / 141 40% 2 24.10.2028 -
Rodrigo Cabral Huracán Aktiv 128 / 128 40% 6 24.10.2028 -
Rodrigo Garro Corinthians Aktiv 140 / 129 40% 5 24.10.2028 -
Emiliano Álvarez Progreso Aktiv 130 / 117 40% 2 24.10.2028 -
Nahuel Tenaglia Banfield Aktiv 132 / 133 40% 1 22.10.2028 -
Agustín Sández Newell's Old Boys Aktiv 131 / 122 40% 1 22.10.2028 -
Jhon Arias Palmeiras Aktiv 144 / 133 40% 5 19.10.2028 -
Jonathan De Irastorza Independiente Aktiv 127 / 132 40% 5 18.10.2028 -
Gonzalo Pérez Lanús Aktiv 123 / 129 40% 1 18.10.2028 -
Rodrigo Nestor Bahia Aktiv 133 / 133 40% 1 17.10.2028 -
Santiago Longo Belgrano Aktiv 127 / 133 40% 4 15.10.2028 -
Matías Zaracho Racing Club Aktiv 122 / 134 40% 1 15.10.2028 -
Gonzalo Luján Inter Miami CF Aktiv 120 / 130 40% 1 15.10.2028 -
Kevin López Independiente Aktiv 133 / 125 40% 1 15.10.2028 -
Francisco Álvarez Nacional Aktiv 123 / 130 40% 3 13.10.2028 -
Jabes Saralegui Boca Juniors Aktiv 125 / 134 40% 4 13.10.2028 -
Vicente Poggi Godoy Cruz Aktiv 131 / 127 40% 1 13.10.2028 -
Luca Langoni Columbus Crew Aktiv 138 / 124 40% 2 09.10.2028 -
Rico Henry River Plate Aktiv 145 / 139 40% 3 09.10.2028 -
Lucas Morales Nacional Aktiv 120 / 126 40% 2 09.10.2028 -
Alexis Maldonado Belgrano Aktiv 129 / 115 40% 3 08.10.2028 -
Marco Di Cesare Racing Club Aktiv 134 / 137 40% 1 08.10.2028 -
Sasha Marcich Lanús Aktiv 128 / 119 40% 2 06.10.2028 -
Alan Rodríguez Rosario Central Aktiv 122 / 126 40% 1 06.10.2028 -
Franco Díaz Temperley Aktiv 125 / 118 40% 2 05.10.2028 -
Jaminton Campaz Rosario Central Aktiv 126 / 136 40% 1 03.10.2028 -
Joaquín Gho Argentinos Juniors Aktiv 128 / 124 40% 1 01.10.2028 -
Guga Fluminense Aktiv 127 / 129 40% 1 29.09.2028 -
Renan Lodi Atlético Mineiro Aktiv 145 / 131 40% 4 28.09.2028 -
Franco Orozco Lanús Aktiv 126 / 125 40% 1 27.09.2028 -
Ignacio Perruzzi San Lorenzo Aktiv 126 / 124 40% 1 24.09.2028 -
César Ibáñez Huracán Aktiv 133 / 133 40% 1 23.09.2028 -
Cristian Olivera Grêmio Aktiv 133 / 130 40% 2 17.09.2028 -
Adson Paysandu Aktiv 130 / 130 40% 1 17.09.2028 -
Kauã Moraes Flamengo Aktiv 130 / 133 40% 8 16.09.2028 -
Gérson Cruzeiro Aktiv 137 / 132 40% 5 14.09.2028 -
Matko Miljevic Racing Club Aktiv 138 / 124 40% 1 14.09.2028 -
Alan Velasco Fortaleza Aktiv 129 / 132 40% 3 12.09.2028 -
Tiago Palacios Estudiantes Aktiv 137 / 129 40% 1 12.09.2028 -
Zakaria El Ouahdi Hamburger SV Aktiv 141 / 131 40% 1 23.08.2028 -
Erick Pulga Bahia Aktiv 137 / 141 40% 1 22.08.2028 -
Eliás Montiel Borussia Dortmund Aktiv 151 / 152 40% 2 21.08.2028 -
Max Meyer APOEL Aktiv 142 / 145 40% 1 21.08.2028 -
Alexis Saelemaekers AC Milan Aktiv 157 / 147 40% 2 20.08.2028 -
Nicolò Zaniolo Udinese Aktiv 146 / 139 40% 2 20.08.2028 -
Antonino Gallo Bari Aktiv 144 / 153 40% 1 19.08.2028 -
Christopher Nkunku AC Milan Aktiv 170 / 158 40% 1 19.08.2028 -
Sebastiano Esposito Cagliari Aktiv 154 / 156 40% 1 19.08.2028 -
Honest Ahanor Atalanta Aktiv 146 / 140 40% 4 16.08.2028 -
Jayden Addai Bari Aktiv 144 / 151 40% 1 16.08.2028 -
Borja Sainz Udinese Aktiv 165 / 145 40% 1 16.08.2028 -
Vitinha Genoa Aktiv 153 / 149 40% 1 13.08.2028 -
Giacomo Raspadori Atalanta Aktiv 149 / 151 40% 1 12.08.2028 -
Zito Luvumbo Cagliari Aktiv 146 / 127 40% 1 12.08.2028 -
Santiago Pierotti Lecce Aktiv 141 / 141 40% 2 11.08.2028 -
Nicolás González Juventus Aktiv 166 / 170 40% 1 11.08.2028 -
Ianis Hagi Alanyaspor Aktiv 139 / 145 40% 1 10.08.2028 -
Wesley Al-Nassr Aktiv 141 / 122 40% 1 10.08.2028 -
Kike Saverio Vitória Aktiv 112 / 109 72% 1 17.07.2028 -
Neco Williams Wrexham Aktiv 149 / 152 40% 4 10.07.2028 -
Alisson Criciuma Aktiv 103 / 114 72% 1 10.07.2028 -
Timothy Castagne Stoke City Aktiv 141 / 140 40% 1 10.07.2028 -
Yerson Mosquera Wolverhampton Aktiv 142 / 141 40% 1 10.07.2028 -
Jaden Philogene Wolverhampton Aktiv 149 / 135 40% 1 26.06.2028 -
Samuel Edozie Southampton Aktiv 136 / 142 40% 1 26.06.2028 -
Largie Ramazani Leeds United Aktiv 140 / 157 40% 1 01.06.2028 -
Nicolas Jackson Aston Villa Aktiv 155 / 147 40% 1 01.06.2028 -
André Wolverhampton Aktiv 147 / 141 40% 4 31.05.2028 -
Moisés Caicedo Chelsea Aktiv 179 / 159 40% 8 31.05.2028 -
Matteo Ruggeri Middlesbrough Aktiv 158 / 163 40% 7 31.05.2028 -
Max Bird Birmingham Aktiv 136 / 149 40% 6 29.05.2028 -
Jacques Ekomié Wrexham Aktiv 139 / 136 40% 1 28.05.2028 -
Odel Offiah Shrewsbury Town Aktiv 128 / 128 40% 1 28.05.2028 -
Angeliño AS Roma Aktiv 160 / 160 40% 4 27.05.2028 -
Mats Wieffer Brighton Aktiv 156 / 140 40% 2 27.05.2028 -
Vitaly Janelt Derby County Aktiv 142 / 140 40% 4 27.05.2028 -
Tino Livramento Newcastle United Aktiv 171 / 167 40% 2 26.05.2028 -
Maximiliano Araújo West Ham United Aktiv 164 / 161 40% 2 25.05.2028 -
Boubacar Kamara Aston Villa Aktiv 177 / 171 40% 3 21.05.2028 -
Shea Charles Southampton Aktiv 155 / 151 40% 7 21.05.2028 -
Max Johnston Derby County Aktiv 133 / 124 40% 3 20.05.2028 -
Alex Scott Bournemouth Aktiv 166 / 147 40% 6 20.05.2028 -
Yasin Ayari Middlesbrough Aktiv 149 / 158 40% 1 20.05.2028 -
Bafodé Diakité Plymouth Argyle Aktiv 149 / 141 40% 2 19.05.2028 -
Lamare Bogarde Reading Aktiv 150 / 141 40% 3 18.05.2028 -
Sven Botman Newcastle United Aktiv 162 / 170 40% 1 18.05.2028 -
Callum Brittain Middlesbrough Aktiv 136 / 134 40% 3 13.05.2028 -
Andrey Santos Bolton Wanderers Aktiv 146 / 158 40% 2 13.05.2028 -
Derry Murkin Derby County Aktiv 142 / 120 40% 4 12.05.2028 -
Quinten Timber Crystal Palace Aktiv 147 / 154 40% 3 11.05.2028 -
Jarrad Branthwaite Everton Aktiv 163 / 168 40% 1 11.05.2028 -
Manu Koné AS Roma Aktiv 178 / 160 40% 8 10.05.2028 -
Jayden Bogle Leeds United Aktiv 146 / 140 40% 3 10.05.2028 -
Sander Berge Derby County Aktiv 152 / 152 40% 1 10.05.2028 -
Nathan Collins Brentford Aktiv 155 / 139 40% 1 05.05.2028 -
Amadou Onana Aston Villa Aktiv 151 / 167 40% 4 27.04.2028 -
Welington Southampton Aktiv 129 / 124 40% 7 24.04.2028 -
Jhon Solís Birmingham Aktiv 131 / 139 40% 1 23.04.2028 -
Nordi Mukiele Sunderland Aktiv 146 / 136 40% 2 19.04.2028 -
Manuel Ugarte Leicester City Aktiv 152 / 145 40% 2 17.04.2028 -
Óscar Mingueza Crystal Palace Aktiv 158 / 150 40% 7 16.04.2028 -
Matheus Bidu Corinthians Aktiv 133 / 124 40% 3 13.04.2028 -
Bruno Gomes Internacional Aktiv 134 / 126 40% 4 11.04.2028 -
Caio Alexandre Bahia Aktiv 135 / 127 40% 2 06.04.2028 -
James Trafford Leeds United Aktiv 146 / 153 40% 4 02.04.2028 -
Nathan Trott Cardiff City Aktiv 136 / 127 40% 4 02.04.2028 -
Joe Lumley Sheffield Wednesday Aktiv 116 / 133 40% 2 02.04.2028 -
Danilo Botafogo Aktiv 149 / 152 40% 1 02.04.2028 -
Lucas Paquetá Flamengo Aktiv 147 / 149 40% 1 31.03.2028 -
Jake O'Brien Everton Aktiv 145 / 143 40% 1 31.03.2028 -
Ángelo Preciado Atlético Mineiro Aktiv 139 / 141 40% 3 30.03.2028 -
Nathan Bishop AFC Wimbledon Aktiv 127 / 130 40% 3 29.03.2028 -
Vladan Kovačević Norwich City Aktiv 131 / 113 40% 1 29.03.2028 -
Anthony Patterson Wrexham Aktiv 133 / 126 40% 5 27.03.2028 -
Gabriel Brazão Santos Aktiv 142 / 148 40% 2 27.03.2028 -
Lukas Jensen Millwall Aktiv 120 / 116 40% 2 22.03.2028 -
Vitinho Botafogo Aktiv 133 / 142 40% 2 20.03.2028 -
Exequiel Palacios Lazio Aktiv 163 / 150 40% 1 19.03.2028 -
Caoimhin Kelleher Brentford Aktiv 158 / 153 40% 1 17.03.2028 -
Carl Rushworth Aston Villa Aktiv 155 / 163 40% 1 17.03.2028 -
Radek Vítek Middlesbrough Aktiv 142 / 139 40% 2 14.03.2028 -
Carlos Miguel Palmeiras Aktiv 137 / 130 40% 1 14.03.2028 -
Hugo Souza Corinthians Aktiv 148 / 142 40% 1 12.03.2028 -
Nick Pope Newcastle United Aktiv 136 / 143 40% 2 11.03.2028 -
Lucas Arcanjo Vitória Aktiv 128 / 126 40% 1 11.03.2028 -
Emiliano Martínez Chelsea Aktiv 169 / 156 40% 1 09.03.2028 -
Sol Brynn Bradford City Aktiv 135 / 129 40% 1 09.03.2028 -
Lukáš Horníček Burnley Aktiv 160 / 148 40% 1 07.03.2028 -
Josh Keeley Luton Town Aktiv 146 / 139 40% 2 06.03.2028 -
Gabriel Batista Botafogo Aktiv 134 / 122 40% 2 06.03.2028 -
Aaron Ramsdale Southampton Aktiv 150 / 157 40% 1 14.02.2028 -
Maxime Crépeau Orlando City Aktiv 130 / 116 40% 1 14.02.2028 -
Matz Sels Nottingham Forest Aktiv 144 / 130 40% 1 10.02.2028 -
James Pantemis Portland Timbers Aktiv 132 / 127 40% 1 10.02.2028 -
Christian Kouamé Atlético Mineiro Aktiv 139 / 136 40% 1 30.11.2027 -
Gonçalo Oliveira Benfica Aktiv 119 / 120 40% 5 29.11.2027 -
Josh Nichols Oldham Athletic Aktiv 109 / 125 40% 2 29.11.2027 -
Daniel Idoko Ikorodu City Aktiv 94 / 103 40% 4 27.11.2027 -
Ignacio Fernández Boston River Aktiv 86 / 102 40% 3 27.11.2027 -
Joel Ezra Enyimba Aktiv 100 / 96 40% 3 27.11.2027 -
Matias Siltanen Malmo FF Aktiv 132 / 139 40% 5 26.11.2027 -
Trey Nyoni Rotherham United Aktiv 141 / 136 40% 1 24.11.2027 -
Archie Gray Southampton Aktiv 141 / 144 40% 3 23.11.2027 -
Souza Tottenham Aktiv 124 / 136 40% 1 23.11.2027 -
Victor Hernandez Santa Fe Aktiv 122 / 116 40% 4 22.11.2027 -
Colin Guske Orlando City Aktiv 91 / 94 40% 2 21.11.2027 -
Pablo Lúcio St. Gallen Aktiv 106 / 128 40% 2 20.11.2027 -
Olaniyi Saheed Kwara United Aktiv 90 / 105 40% 1 17.11.2027 -
Daniel Banjaqui Benfica Aktiv 110 / 123 40% 5 12.11.2027 -
Adrian Skogmar Malmo FF Aktiv 124 / 120 40% 4 12.11.2027 -
Hosea Michael Remo Stars Aktiv 87 / 100 40% 2 11.11.2027 -
Gideon Manaseh Ikorodu City Aktiv 87 / 100 40% 1 30.10.2027 -
Bernardo Lima Porto Aktiv 107 / 120 40% 6 28.10.2027 -
Ayden Heaven Portsmouth Aktiv 155 / 146 40% 2 20.10.2027 -
Nahuel Leivas Montevideo City Torque Aktiv 107 / 114 40% 3 19.10.2027 -
Esteban de Lima Tacuarembo Aktiv 97 / 105 40% 2 18.10.2027 -
Tiago Freitas Benfica Aktiv 116 / 120 40% 3 17.10.2027 -
Miguel Figueiredo Benfica Aktiv 120 / 114 40% 2 12.10.2027 -
Caleb Yirenkyi Coventry City Aktiv 142 / 146 40% 1 12.10.2027 -
Diego Vargas Universidad de Concepcion Aktiv 92 / 98 40% 2 16.09.2027 -
Azizbek To'lqinbekov Bunyodkor Aktiv 106 / 98 40% 1 08.09.2027 -
Finn Azaz Southampton Aktiv 141 / 128 40% 1 31.05.2027 -
Ismaïla Sarr Crystal Palace Aktiv 143 / 157 40% 1 31.05.2027 -
Ivor Pandur Hull City Aktiv 125 / 116 40% 2 30.05.2027 -
Jacob Greaves Ipswich Town Aktiv 135 / 145 40% 5 29.05.2027 -
Oliver Skipp Leicester City Aktiv 130 / 140 40% 1 29.05.2027 -
Will Dennis Milton Keynes Dons Aktiv 115 / 108 40% 4 28.05.2027 -
Zane Albarus Shrewsbury Town Aktiv 97 / 87 40% 3 27.05.2027 -
Jan Bürger Northampton Town Aktiv 108 / 121 40% 1 27.05.2027 -
Gianluca Saro Foggia Aktiv 103 / 121 40% 1 26.05.2027 -
Mile Svilar AS Roma Aktiv 156 / 171 40% 1 25.05.2027 -
Levi Colwill Chelsea Aktiv 165 / 173 40% 1 24.05.2027 -
Lucas Bergvall Tottenham Aktiv 144 / 153 40% 1 23.05.2027 -
Dara O'Shea Ipswich Town Aktiv 146 / 138 40% 3 21.05.2027 -
Brooke Norton-Cuffy Hull City Aktiv 135 / 142 40% 2 21.05.2027 -
Ryan Sessegnon Fulham Aktiv 139 / 147 40% 1 21.05.2027 -
Florentino Luís Ipswich Town Aktiv 151 / 145 40% 4 20.05.2027 -
André-Franck Zambo Anguissa Napoli Aktiv 155 / 147 40% 1 20.05.2027 -
Khéphren Thuram Juventus Aktiv 159 / 145 40% 1 19.05.2027 -
Luke McNally Bristol City Aktiv 139 / 117 40% 3 14.05.2027 -
Robin Roefs Sunderland Aktiv 147 / 135 40% 2 05.05.2027 -
Leon Goretzka Aston Villa Aktiv 152 / 162 40% 3 04.05.2027 -
Yehor Yarmoliuk Brentford Aktiv 157 / 153 40% 2 04.05.2027 -
Ousmane Diomande Nottingham Forest Aktiv 152 / 167 40% 2 01.05.2027 -
Juanlu Bournemouth Aktiv 140 / 164 40% 2 26.04.2027 -
Maxence Lacroix Chelsea Aktiv 154 / 163 40% 1 26.04.2027 -
Pedro Porro Tottenham Aktiv 158 / 157 40% 2 25.04.2027 -
Matthew Targett Hull City Aktiv 128 / 138 40% 3 23.04.2027 -
Sergio Barlocco Trento Aktiv 114 / 119 40% 1 22.04.2027 -
Deniz Ertaş Konyaspor Aktiv 114 / 111 40% 2 20.04.2027 -
Charlie Gray Fleetwood Town Aktiv 83 / 81 40% 1 19.04.2027 -
Andreas Jungdal Westerlo Aktiv 119 / 118 40% 1 19.04.2027 -
Azor Matusiwa Ipswich Town Aktiv 141 / 148 40% 1 15.04.2027 -
Ludovico Del Sorbo Sorrento Aktiv 101 / 98 40% 1 13.04.2027 -
Samu Maccabi Netanya Aktiv 128 / 104 40% 1 13.04.2027 -
Oufa Shobeir MC Alger Aktiv 129 / 120 40% 1 13.04.2027 -
Bosun Lawal Stoke City Aktiv 119 / 115 40% 1 13.04.2027 -
Kenny Tete Fulham Aktiv 143 / 145 40% 2 11.04.2027 -
Igor Burnley Aktiv 139 / 144 40% 1 11.04.2027 -
Adam Randell Bristol City Aktiv 125 / 130 40% 1 09.04.2027 -
Aidan Morris Middlesbrough Aktiv 132 / 140 40% 1 09.04.2027 -
Christopher Opéri Basaksehir Aktiv 139 / 138 40% 1 07.04.2027 -
Enrico Delprato Parma Aktiv 141 / 150 40% 1 07.04.2027 -
Tomáš Souček West Ham United Aktiv 133 / 144 40% 2 06.04.2027 -
Kazunari Kita Real Sociedad Aktiv 103 / 100 40% 2 01.04.2027 -
Martim Cunha Porto Aktiv 103 / 119 40% 2 30.03.2027 -
Leandro Martins Benfica Aktiv 98 / 88 40% 1 30.03.2027 -
Lewis Ferguson Bologna Aktiv 135 / 130 40% 1 29.03.2027 -
Milan van Ewijk Coventry City Aktiv 134 / 128 40% 1 29.03.2027 -
Myles Roberts Cambridge United Aktiv 98 / 94 40% 1 28.03.2027 -
Alfie Doughty Millwall Aktiv 125 / 124 40% 1 28.03.2027 -
Mads Hermansen West Ham United Aktiv 134 / 136 40% 1 24.03.2027 -
Gonçalo Tabuaço Maritimo Aktiv 107 / 95 40% 1 24.03.2027 -
Fran Vieites Walsall Aktiv 121 / 114 40% 1 23.03.2027 -
Bright Arrey-Mbi Braga Aktiv 131 / 130 40% 4 21.03.2027 -
Enzo Barrenechea Benfica Aktiv 157 / 157 40% 2 21.03.2027 -
Víctor Gómez Braga Aktiv 150 / 143 40% 1 20.03.2027 -
Sidney Lima Santa Clara Aktiv 125 / 125 40% 1 20.03.2027 -
João Gonçalves Oliveirense Aktiv 117 / 125 40% 1 18.03.2027 -
James Dornelly Peterborough United Aktiv 96 / 108 40% 2 07.03.2027 -
Jenson Jones Walsall Aktiv 87 / 102 40% 1 16.02.2027 -
Joaquin Seys Club Brugge Aktiv 126 / 117 40% 1 16.02.2027 -
Riley Owen Stevenage Aktiv 99 / 107 40% 1 13.02.2027 -
Cheveyo Tsawa Club Brugge Aktiv 124 / 138 40% 1 03.02.2027 -
Thijmen Blokzijl KV Kortrijk Aktiv 128 / 116 40% 1 02.02.2027 -
Marinho Vitória Aktiv 120 / 121 72% 1 14.12.2026 Befürworten
Gustaf Lagerbielke Braga Aktiv 140 / 120 40% 1 28.11.2026 -
Francisco Moura Porto Aktiv 148 / 132 40% 1 28.11.2026 -
Sergi Altimira Sporting CP Aktiv 139 / 141 40% 1 28.11.2026 -
Samuel Dahl Benfica Aktiv 128 / 132 40% 1 25.11.2026 -
Alberto Costa Porto Aktiv 134 / 129 40% 2 22.11.2026 -
Juan Ignacio Nardoni Grêmio Aktiv 126 / 124 40% 2 17.11.2026 -
Víctor Guzmán Monterrey Aktiv 126 / 128 40% 1 17.11.2026 -
Dinis Pinto Moreirense Aktiv 122 / 125 40% 1 17.11.2026 -
Alan Varela Porto Aktiv 135 / 157 40% 1 16.11.2026 -
Sikou Niakaté Braga Aktiv 143 / 142 40% 1 16.11.2026 -
Mathias De Amorim Famalicao Aktiv 120 / 139 40% 1 13.11.2026 -
Nehuén Pérez Porto Aktiv 140 / 131 40% 2 09.11.2026 -
Leandro Barreiro Benfica Aktiv 142 / 143 40% 1 02.11.2026 -
Fidel Ambríz Monterrey Aktiv 119 / 124 40% 1 23.10.2026 -
Jesús Orozco Chiquete Cruz Azul Aktiv 136 / 120 40% 1 23.10.2026 -
Conrad Wallem Djurgarden Aktiv 121 / 110 40% 1 20.10.2026 -
Santiago Ramos Mingo Bahia Aktiv 129 / 128 40% 1 20.10.2026 -
Martinelli Fluminense Aktiv 146 / 144 40% 1 20.10.2026 -
Zeno Debast Sporting CP Aktiv 128 / 140 40% 1 05.10.2026 -